Time;durP1;ratioP1;P1;durP2;ratioP2;P2;SDS_P1;SDS_P2;PMS_P1;PMS_P2;Temp;Humidity;BMP_temperature;BMP_pressure;BME280_temperature;BME280_humidity;BME280_pressure;Samples;Min_cycle;Max_cycle;Signal;HPM_P1;HPM_P2
2022/06/24 00:00:04;;;;;;;7.57;7.07;;;;;;;18.47;100.00;96518.09;5029111;28;20215;-66
2022/06/24 00:02:33;;;;;;;7.77;7.07;;;;;;;18.25;100.00;96515.44;5028598;28;20204;-68
2022/06/24 00:05:03;;;;;;;7.83;7.23;;;;;;;18.12;100.00;96508.56;5029691;28;20683;-65
2022/06/24 00:07:31;;;;;;;8.07;7.37;;;;;;;18.17;100.00;96505.94;4995784;28;20215;-65
2022/06/24 00:09:59;;;;;;;8.57;7.77;;;;;;;18.15;100.00;96506.22;5015220;28;20287;-66
2022/06/24 00:12:29;;;;;;;7.87;7.37;;;;;;;17.98;100.00;96503.56;5012401;28;20759;-65
2022/06/24 00:14:59;;;;;;;7.70;7.10;;;;;;;17.82;100.00;96507.91;5027280;28;20227;-66
2022/06/24 00:17:32;;;;;;;8.70;7.87;;;;;;;17.76;100.00;96511.56;5023793;28;20503;-65
2022/06/24 00:20:02;;;;;;;8.23;7.63;;;;;;;17.71;100.00;96517.66;5025243;28;20227;-65
2022/06/24 00:22:31;;;;;;;8.87;8.07;;;;;;;17.70;100.00;96516.03;4994854;28;20234;-68
2022/06/24 00:25:08;;;;;;;8.27;7.50;;;;;;;17.38;100.00;96515.84;5008137;28;20599;-65
2022/06/24 00:27:38;;;;;;;8.70;8.10;;;;;;;17.29;100.00;96526.94;5013381;28;20295;-67
2022/06/24 00:30:11;;;;;;;8.70;7.87;;;;;;;17.21;100.00;96527.34;5021579;28;20282;-65
2022/06/24 00:32:39;;;;;;;7.80;7.30;;;;;;;17.09;100.00;96529.28;5028195;28;20343;-64
2022/06/24 00:35:14;;;;;;;7.87;7.33;;;;;;;16.96;100.00;96533.88;5021149;28;21002;-63
2022/06/24 00:37:44;;;;;;;8.27;7.60;;;;;;;16.99;100.00;96535.25;4996362;28;20233;-63
2022/06/24 00:40:25;;;;;;;8.13;7.50;;;;;;;17.06;100.00;96527.91;5007533;28;20252;-68
2022/06/24 00:42:56;;;;;;;8.20;7.63;;;;;;;16.93;100.00;96521.78;5009863;28;20211;-66
2022/06/24 00:45:31;;;;;;;7.67;7.10;;;;;;;17.03;100.00;96525.69;5025840;28;20235;-66
2022/06/24 00:48:00;;;;;;;8.60;8.00;;;;;;;17.03;100.00;96534.56;5025905;28;20560;-66
2022/06/24 00:50:29;;;;;;;8.73;8.00;;;;;;;16.99;100.00;96525.38;5025201;28;20984;-65
2022/06/24 00:52:58;;;;;;;8.30;7.80;;;;;;;17.07;100.00;96526.88;4995519;28;20692;-66
2022/06/24 00:55:29;;;;;;;8.90;8.20;;;;;;;16.89;100.00;96522.50;5009636;28;20978;-66
2022/06/24 00:58:00;;;;;;;9.10;8.40;;;;;;;16.81;100.00;96525.56;5026252;28;20309;-66
2022/06/24 01:00:53;;;;;;;8.90;8.10;;;;;;;17.02;100.00;96505.34;5006806;28;20228;-65
2022/06/24 01:03:21;;;;;;;8.10;7.60;;;;;;;16.81;100.00;96515.69;5024290;28;20293;-66
2022/06/24 01:05:49;;;;;;;8.73;8.13;;;;;;;16.88;100.00;96502.16;5026281;28;20219;-65
2022/06/24 01:08:17;;;;;;;9.33;8.53;;;;;;;16.84;100.00;96503.66;4992495;28;20896;-66
2022/06/24 01:10:49;;;;;;;9.00;8.40;;;;;;;16.70;100.00;96508.53;5010019;28;20277;-65
2022/06/24 01:13:19;;;;;;;8.40;7.60;;;;;;;16.71;100.00;96502.94;5022531;28;20212;-66
2022/06/24 01:15:47;;;;;;;8.80;8.00;;;;;;;16.72;100.00;96503.75;5007278;28;21634;-66
2022/06/24 01:18:16;;;;;;;9.37;8.70;;;;;;;16.64;100.00;96515.63;5026899;28;20231;-66
2022/06/24 01:20:44;;;;;;;8.07;7.57;;;;;;;16.78;100.00;96490.22;5026363;28;20310;-65
2022/06/24 01:23:14;;;;;;;8.43;7.73;;;;;;;16.70;100.00;96497.84;4988002;28;20250;-66
2022/06/24 01:25:42;;;;;;;9.03;8.33;;;;;;;16.61;100.00;96498.19;5023999;28;20338;-66
2022/06/24 01:28:10;;;;;;;8.57;7.97;;;;;;;16.62;100.00;96504.38;5014466;28;20219;-66
2022/06/24 01:30:39;;;;;;;8.90;8.17;;;;;;;16.52;100.00;96501.50;5007107;28;20199;-65
2022/06/24 01:33:07;;;;;;;8.17;7.57;;;;;;;16.44;100.00;96508.03;5026148;28;20204;-64
2022/06/24 01:35:35;;;;;;;8.80;8.20;;;;;;;16.55;100.00;96509.84;5031643;28;20226;-66
2022/06/24 01:38:03;;;;;;;9.23;8.43;;;;;;;16.51;100.00;96497.22;4985885;28;21267;-65
2022/06/24 01:40:33;;;;;;;12.23;7.60;;;;;;;16.49;100.00;96500.94;5004674;28;21094;-66
2022/06/24 01:43:01;;;;;;;8.97;8.30;;;;;;;16.49;100.00;96489.41;4990576;28;20219;-65
2022/06/24 01:45:30;;;;;;;9.20;8.50;;;;;;;16.66;100.00;96483.28;5021975;28;20322;-65
2022/06/24 01:47:58;;;;;;;8.80;8.20;;;;;;;16.68;100.00;96491.91;5028484;28;20290;-66
2022/06/24 01:50:26;;;;;;;9.77;8.00;;;;;;;16.68;100.00;96492.72;5009998;28;20271;-66
2022/06/24 01:52:54;;;;;;;8.87;8.07;;;;;;;16.71;100.00;96492.22;5030636;28;20208;-65
2022/06/24 01:55:22;;;;;;;9.10;8.43;;;;;;;16.71;100.00;96478.84;5019970;28;20251;-67
2022/06/24 01:57:51;;;;;;;8.40;7.80;;;;;;;16.72;100.00;96474.31;4999182;28;20299;-64
2022/06/24 02:00:20;;;;;;;10.17;9.40;;;;;;;16.87;100.00;96479.94;5009645;28;20203;-67
2022/06/24 02:02:48;;;;;;;8.63;8.03;;;;;;;16.94;100.00;96477.09;5032167;28;20227;-65
2022/06/24 02:05:16;;;;;;;8.37;7.77;;;;;;;17.13;100.00;96475.03;5011162;28;21029;-63
2022/06/24 02:07:44;;;;;;;8.97;8.20;;;;;;;16.92;100.00;96469.31;5033661;28;20824;-67
2022/06/24 02:13:29;;;;;;;7.87;7.37;;;;;;;16.80;100.00;96457.88;4924340;28;20228;-65
2022/06/24 02:15:59;;;;;;;8.87;8.13;;;;;;;16.98;100.00;96456.03;4949366;28;20253;-66
2022/06/24 02:18:28;;;;;;;8.20;7.60;;;;;;;16.98;100.00;96448.84;4970524;28;20523;-63
2022/06/24 02:20:57;;;;;;;8.50;7.90;;;;;;;16.92;100.00;96452.47;4970837;28;20324;-67
2022/06/24 02:23:25;;;;;;;9.47;8.67;;;;;;;16.92;100.00;96444.44;4954044;28;21109;-64
2022/06/24 02:25:54;;;;;;;8.67;8.07;;;;;;;17.09;100.00;96440.97;4970688;28;20304;-63
2022/06/24 02:28:24;;;;;;;8.57;7.77;;;;;;;17.14;100.00;96441.88;4931641;28;20397;-64
2022/06/24 02:30:53;;;;;;;8.47;7.97;;;;;;;16.94;100.00;96436.97;4948203;28;20253;-66
2022/06/24 02:33:22;;;;;;;9.63;8.70;;;;;;;16.97;100.00;96444.50;4962877;28;20293;-64
2022/06/24 02:35:50;;;;;;;9.03;8.33;;;;;;;16.95;100.00;96441.28;4968442;28;20774;-64
2022/06/24 02:38:18;;;;;;;8.90;8.03;;;;;;;16.83;100.00;96441.34;4944536;28;20661;-64
2022/06/24 02:40:47;;;;;;;8.93;8.33;;;;;;;16.76;100.00;96440.69;4973199;28;20197;-64
2022/06/24 02:43:17;;;;;;;8.80;8.27;;;;;;;16.74;100.00;96440.13;4969456;28;20718;-63
2022/06/24 02:45:48;;;;;;;9.47;8.63;;;;;;;16.69;100.00;96442.72;4980643;28;20765;-67
2022/06/24 02:48:17;;;;;;;10.57;9.67;;;;;;;16.72;100.00;96442.22;4990703;28;20894;-62
2022/06/24 02:50:47;;;;;;;9.90;9.00;;;;;;;16.69;100.00;96440.84;5013155;28;20756;-65
2022/06/24 02:53:16;;;;;;;9.40;8.60;;;;;;;16.63;100.00;96449.84;4990363;28;20204;-63
2022/06/24 02:55:46;;;;;;;9.43;8.63;;;;;;;16.51;100.00;96447.22;5011929;28;20243;-64
2022/06/24 02:58:14;;;;;;;9.63;8.93;;;;;;;16.59;100.00;96444.13;5006281;28;20286;-64
2022/06/24 03:00:42;;;;;;;9.80;9.00;;;;;;;16.66;100.00;96453.88;4975578;28;20732;-66
2022/06/24 03:03:13;;;;;;;9.67;8.87;;;;;;;16.78;100.00;96458.09;4979906;28;20895;-65
2022/06/24 03:05:42;;;;;;;9.30;8.70;;;;;;;16.84;100.00;96453.66;5010948;28;20225;-63
2022/06/24 03:08:11;;;;;;;10.17;9.30;;;;;;;17.06;100.00;96455.66;4990766;28;20305;-65
2022/06/24 03:10:40;;;;;;;9.53;8.63;;;;;;;17.18;100.00;96455.56;5011606;28;20247;-65
2022/06/24 03:13:08;;;;;;;9.53;8.80;;;;;;;17.15;100.00;96453.38;4957616;28;20721;-64
2022/06/24 03:15:36;;;;;;;8.70;8.20;;;;;;;17.28;100.00;96452.22;4975203;28;20359;-66
2022/06/24 03:18:05;;;;;;;9.97;9.17;;;;;;;17.17;100.00;96451.25;4992928;28;20741;-66
2022/06/24 03:20:34;;;;;;;10.07;9.17;;;;;;;17.27;100.00;96456.78;5007698;28;20308;-65
2022/06/24 03:23:02;;;;;;;9.63;8.93;;;;;;;17.36;100.00;96449.94;4993972;28;20244;-66
2022/06/24 03:25:31;;;;;;;8.63;7.93;;;;;;;17.49;100.00;96456.84;5005270;28;20288;-65
2022/06/24 03:28:01;;;;;;;9.60;8.80;;;;;;;17.57;100.00;96449.44;5015245;28;20211;-65
2022/06/24 03:30:29;;;;;;;9.90;9.20;;;;;;;17.63;100.00;96457.31;5004206;28;20354;-65
2022/06/24 03:32:57;;;;;;;8.30;7.73;;;;;;;17.70;100.00;96461.66;4945645;28;20752;-65
2022/06/24 03:35:25;;;;;;;10.33;9.53;;;;;;;17.76;100.00;96460.66;4976665;28;20224;-63
2022/06/24 03:37:55;;;;;;;9.80;9.00;;;;;;;17.87;100.00;96456.25;4980008;28;20325;-65
2022/06/24 03:40:23;;;;;;;10.33;9.43;;;;;;;17.97;100.00;96456.38;5009945;28;20239;-66
2022/06/24 03:42:51;;;;;;;9.57;8.97;;;;;;;17.92;100.00;96456.31;5006737;28;20510;-67
2022/06/24 03:45:19;;;;;;;9.57;8.80;;;;;;;18.02;100.00;96458.34;5026249;28;20249;-66
2022/06/24 03:47:47;;;;;;;9.00;8.20;;;;;;;18.02;100.00;96458.34;4957480;28;20755;-63
2022/06/24 03:50:16;;;;;;;9.63;8.83;;;;;;;18.16;100.00;96454.22;4974274;28;21674;-66
2022/06/24 03:52:45;;;;;;;9.37;8.77;;;;;;;18.46;100.00;96460.16;5029176;28;20208;-66
2022/06/24 03:55:15;;;;;;;9.67;8.97;;;;;;;18.60;100.00;96457.88;5023989;28;20336;-65
2022/06/24 03:57:43;;;;;;;9.27;8.50;;;;;;;18.56;100.00;96454.09;4998777;28;20306;-63
2022/06/24 04:00:12;;;;;;;8.43;7.63;;;;;;;18.56;100.00;96451.41;5028453;28;21216;-65
2022/06/24 04:02:40;;;;;;;8.23;7.63;;;;;;;18.52;100.00;96459.13;5024342;28;20306;-63
2022/06/24 04:05:13;;;;;;;8.90;8.30;;;;;;;18.51;100.00;96444.13;5030407;28;20296;-66
2022/06/24 04:07:41;;;;;;;8.77;7.97;;;;;;;18.59;100.00;96448.22;4981450;28;20874;-62
2022/06/24 04:10:09;;;;;;;9.17;8.40;;;;;;;18.45;100.00;96440.59;5025873;28;20222;-65
2022/06/24 04:12:39;;;;;;;8.77;8.07;;;;;;;18.54;100.00;96442.81;5024753;28;20559;-63
2022/06/24 04:15:18;;;;;;;8.97;8.27;;;;;;;18.75;100.00;96439.28;5027663;28;20251;-66
2022/06/24 04:17:48;;;;;;;9.30;8.60;;;;;;;18.99;100.00;96435.47;5024630;28;20436;-66
2022/06/24 04:20:17;;;;;;;8.67;8.07;;;;;;;19.04;100.00;96433.59;5028546;28;20217;-63
2022/06/24 04:22:46;;;;;;;9.27;8.40;;;;;;;19.06;100.00;96431.47;4979020;28;20428;-63
2022/06/24 04:25:14;;;;;;;9.63;8.97;;;;;;;19.00;100.00;96440.56;5028942;28;20247;-66
2022/06/24 04:27:44;;;;;;;9.47;8.77;;;;;;;18.88;100.00;96454.13;5026435;28;20279;-64
2022/06/24 04:30:13;;;;;;;9.70;8.90;;;;;;;18.86;100.00;96471.56;5029277;28;20276;-67
2022/06/24 04:32:41;;;;;;;7.80;7.10;;;;;;;18.77;100.00;96488.13;5024694;28;20643;-63
2022/06/24 04:35:09;;;;;;;9.03;8.33;;;;;;;18.45;100.00;96496.09;5001770;28;21714;-63
2022/06/24 04:37:38;;;;;;;8.07;7.23;;;;;;;18.32;100.00;96497.28;4982695;28;20806;-63
2022/06/24 04:40:08;;;;;;;8.07;7.57;;;;;;;18.27;100.00;96494.53;5007925;28;20195;-62
2022/06/24 04:42:36;;;;;;;9.53;8.63;;;;;;;17.90;100.00;96510.16;5027972;28;20310;-63
2022/06/24 04:45:07;;;;;;;9.67;8.80;;;;;;;17.71;100.00;96508.81;5024776;28;20762;-60
2022/06/24 04:47:35;;;;;;;8.63;7.93;;;;;;;17.60;100.00;96507.84;5029882;28;20203;-63
2022/06/24 04:50:04;;;;;;;8.70;8.00;;;;;;;17.68;100.00;96493.25;5027888;28;20247;-62
2022/06/24 04:52:32;;;;;;;8.67;7.97;;;;;;;17.88;100.00;96474.75;4981110;28;20313;-64
2022/06/24 04:55:02;;;;;;;14.50;9.33;;;;;;;17.87;100.00;96470.44;5005328;28;20239;-63
2022/06/24 04:57:29;;;;;;;10.33;9.27;;;;;;;17.72;100.00;96471.06;5026414;28;20548;-66
2022/06/24 04:59:58;;;;;;;11.03;9.93;;;;;;;17.35;100.00;96488.50;5026846;28;20695;-61
2022/06/24 05:02:27;;;;;;;11.97;10.67;;;;;;;17.15;100.00;96498.88;5021505;28;20566;-62
2022/06/24 05:04:56;;;;;;;11.37;9.57;;;;;;;17.00;100.00;96500.25;5023583;28;20650;-63
2022/06/24 05:07:24;;;;;;;9.57;8.73;;;;;;;16.99;100.00;96495.94;4983149;28;21016;-64
2022/06/24 05:09:52;;;;;;;11.03;10.30;;;;;;;16.99;100.00;96497.81;5029757;28;20253;-64
2022/06/24 05:12:20;;;;;;;10.13;9.33;;;;;;;17.12;100.00;96504.72;5029874;28;20490;-62
2022/06/24 05:14:49;;;;;;;11.23;10.33;;;;;;;17.09;100.00;96484.59;5007495;28;22856;-67
2022/06/24 05:17:22;;;;;;;12.20;10.90;;;;;;;17.07;100.00;96487.50;5028887;28;20208;-66
2022/06/24 05:19:51;;;;;;;11.43;10.43;;;;;;;17.25;100.00;96492.88;5029588;28;20294;-65
2022/06/24 05:22:19;;;;;;;10.93;10.07;;;;;;;17.33;100.00;96487.09;5018296;28;20215;-68
2022/06/24 05:24:47;;;;;;;11.47;10.50;;;;;;;17.47;100.00;96493.75;4984336;28;20680;-66
2022/06/24 05:27:15;;;;;;;11.37;10.43;;;;;;;17.58;100.00;96493.91;5030172;28;20203;-68
2022/06/24 05:29:43;;;;;;;12.57;11.57;;;;;;;17.70;100.00;96488.44;5028655;28;20671;-64
2022/06/24 05:32:12;;;;;;;12.13;10.90;;;;;;;17.60;100.00;96483.75;5033132;28;20642;-67
2022/06/24 05:34:40;;;;;;;12.67;11.47;;;;;;;17.60;100.00;96487.22;5012962;28;20251;-64
2022/06/24 05:37:09;;;;;;;12.80;11.63;;;;;;;17.55;100.00;96505.91;5026669;28;20218;-66
2022/06/24 05:39:37;;;;;;;12.10;11.10;;;;;;;17.56;100.00;96504.84;4970034;28;20420;-66
2022/06/24 05:42:05;;;;;;;15.60;11.30;;;;;;;17.46;100.00;96510.06;5031982;28;20588;-67
2022/06/24 05:44:34;;;;;;;13.43;11.63;;;;;;;17.35;100.00;96525.16;5027457;28;20239;-65
2022/06/24 05:47:02;;;;;;;13.63;12.43;;;;;;;17.25;100.00;96543.72;5031790;28;20322;-68
2022/06/24 05:49:30;;;;;;;12.90;11.67;;;;;;;17.10;100.00;96538.94;5024704;28;20228;-65
2022/06/24 05:51:58;;;;;;;13.50;12.20;;;;;;;17.18;100.00;96549.22;5029981;28;20231;-66
2022/06/24 05:57:18;;;;;;;14.83;13.50;;;;;;;17.34;100.00;96537.75;5012158;28;20262;-65
2022/06/24 05:59:46;;;;;;;13.30;12.27;;;;;;;17.43;100.00;96534.66;4977306;28;20831;-65
2022/06/24 06:02:14;;;;;;;15.40;13.60;;;;;;;17.52;100.00;96535.84;5027457;28;20207;-68
2022/06/24 06:04:43;;;;;;;15.13;13.60;;;;;;;17.69;100.00;96538.53;5029764;28;20232;-66
2022/06/24 06:07:11;;;;;;;13.93;12.83;;;;;;;17.93;100.00;96549.06;5018561;28;20602;-69
2022/06/24 06:09:41;;;;;;;15.07;13.77;;;;;;;17.70;100.00;96539.34;5030495;28;20295;-65
2022/06/24 06:12:09;;;;;;;14.33;13.03;;;;;;;18.12;100.00;96532.69;5028140;28;20945;-66
2022/06/24 06:14:39;;;;;;;15.07;13.60;;;;;;;18.28;100.00;96529.16;4988867;28;20227;-67
2022/06/24 06:17:07;;;;;;;14.47;13.07;;;;;;;18.21;100.00;96537.38;5024691;28;20810;-65
2022/06/24 06:19:35;;;;;;;13.27;12.20;;;;;;;18.47;100.00;96529.66;5029285;28;20211;-65
2022/06/24 06:22:04;;;;;;;12.93;11.73;;;;;;;18.74;100.00;96522.69;5012249;28;20290;-66
2022/06/24 06:24:33;;;;;;;14.00;12.63;;;;;;;18.85;100.00;96534.34;5028862;28;20859;-67
2022/06/24 06:27:02;;;;;;;13.80;12.60;;;;;;;19.10;100.00;96520.38;5025238;28;21124;-68
2022/06/24 06:29:30;;;;;;;12.67;11.73;;;;;;;19.28;100.00;96518.34;4986558;28;20274;-67
2022/06/24 06:31:58;;;;;;;13.53;12.00;;;;;;;19.42;100.00;96521.41;5025082;28;20499;-66
2022/06/24 06:34:26;;;;;;;12.77;11.60;;;;;;;19.31;100.00;96525.91;5029987;28;20208;-67
2022/06/24 06:36:54;;;;;;;13.43;12.23;;;;;;;19.55;100.00;96518.31;5011160;28;20208;-62
2022/06/24 06:39:22;;;;;;;11.23;10.37;;;;;;;19.65;100.00;96514.88;5027974;28;20257;-66
2022/06/24 06:41:50;;;;;;;11.90;10.90;;;;;;;19.88;100.00;96521.72;5023805;28;20211;-65
2022/06/24 06:44:20;;;;;;;10.53;9.83;;;;;;;20.19;100.00;96511.16;5029046;28;20293;-66
2022/06/24 06:46:49;;;;;;;11.17;10.37;;;;;;;20.04;100.00;96509.19;4988894;28;20212;-65
2022/06/24 06:49:17;;;;;;;11.07;9.90;;;;;;;20.07;100.00;96505.97;5030335;28;20286;-67
2022/06/24 06:51:45;;;;;;;11.33;10.23;;;;;;;20.36;100.00;96513.63;5013379;28;20793;-65
2022/06/24 06:54:13;;;;;;;10.77;9.80;;;;;;;19.98;100.00;96512.94;5028520;28;21030;-67
2022/06/24 06:56:42;;;;;;;10.20;9.30;;;;;;;20.23;100.00;96509.56;5027886;28;20305;-65
2022/06/24 06:59:10;;;;;;;10.50;9.63;;;;;;;20.21;100.00;96510.91;5026529;28;20475;-66
2022/06/24 07:01:40;;;;;;;10.23;9.27;;;;;;;20.33;100.00;96508.00;4987835;28;20287;-64
2022/06/24 07:04:08;;;;;;;9.27;8.57;;;;;;;20.50;100.00;96515.84;5023880;28;20224;-64
2022/06/24 07:06:36;;;;;;;9.87;8.93;;;;;;;20.76;100.00;96511.34;5032390;28;20219;-63
2022/06/24 07:09:04;;;;;;;9.57;8.97;;;;;;;20.89;100.00;96511.94;5011135;28;20650;-63
2022/06/24 07:11:32;;;;;;;9.67;8.87;;;;;;;21.43;100.00;96504.41;5028684;28;20738;-65
2022/06/24 07:14:00;;;;;;;9.30;8.60;;;;;;;21.41;100.00;96504.69;5023534;28;20318;-66
2022/06/24 07:16:28;;;;;;;8.50;7.80;;;;;;;21.50;100.00;96504.94;4988801;28;20227;-66
2022/06/24 07:18:58;;;;;;;7.63;6.87;;;;;;;21.39;100.00;96496.84;5020953;28;20230;-63
2022/06/24 07:21:26;;;;;;;8.53;7.67;;;;;;;21.39;100.00;96496.84;5029416;28;20231;-65
2022/06/24 07:23:54;;;;;;;7.77;7.10;;;;;;;21.19;100.00;96494.19;5011903;28;20307;-66
2022/06/24 07:26:22;;;;;;;7.77;6.83;;;;;;;21.05;100.00;96489.34;5028812;28;20223;-63
2022/06/24 07:28:50;;;;;;;11.50;8.10;;;;;;;21.02;100.00;96486.38;5027703;28;20242;-64
2022/06/24 07:31:20;;;;;;;9.13;7.80;;;;;;;21.18;100.00;96479.09;4986880;28;20242;-65
2022/06/24 07:33:48;;;;;;;8.10;7.33;;;;;;;21.24;100.00;96475.31;5027682;28;20208;-65
2022/06/24 07:36:17;;;;;;;7.50;6.43;;;;;;;21.30;100.00;96470.75;5025261;28;20702;-64
2022/06/24 07:38:45;;;;;;;7.27;6.67;;;;;;;21.21;100.00;96475.84;5011752;28;20243;-63
2022/06/24 07:41:14;;;;;;;8.07;7.37;;;;;;;21.48;100.00;96483.66;5026837;28;20821;-65
2022/06/24 07:43:42;;;;;;;8.10;7.00;;;;;;;21.57;100.00;96465.03;5024377;28;20239;-65
2022/06/24 07:46:11;;;;;;;7.70;7.00;;;;;;;22.01;100.00;96471.69;5024208;28;20255;-64
2022/06/24 07:48:39;;;;;;;8.20;7.63;;;;;;;21.64;100.00;96470.97;4985606;28;20216;-63
2022/06/24 07:51:12;;;;;;;8.37;6.90;;;;;;;21.83;100.00;96465.81;5025171;28;20504;-64
2022/06/24 07:53:42;;;;;;;6.20;5.60;;;;;;;21.83;100.00;96473.91;5014361;28;20211;-64
2022/06/24 07:59:03;;;;;;;6.50;5.93;;;;;;;21.73;100.00;96473.94;5020403;28;20268;-64
2022/06/24 08:01:31;;;;;;;8.73;5.90;;;;;;;21.91;100.00;96471.72;5027086;28;20254;-64
2022/06/24 08:03:59;;;;;;;6.70;5.67;;;;;;;22.30;100.00;96462.13;4984273;28;20932;-64
2022/06/24 08:06:28;;;;;;;8.83;6.40;;;;;;;22.09;100.00;96452.25;4960081;28;20967;-65
2022/06/24 08:08:57;;;;;;;6.67;5.90;;;;;;;22.24;100.00;96448.66;5026646;28;20294;-65
2022/06/24 08:11:25;;;;;;;6.27;5.70;;;;;;;21.95;100.00;96451.19;5005399;28;20425;-63
2022/06/24 08:13:53;;;;;;;5.90;5.33;;;;;;;22.27;100.00;96450.81;5014200;28;20289;-65
2022/06/24 08:16:22;;;;;;;6.60;6.10;;;;;;;22.10;100.00;96459.25;5010696;28;20300;-64
2022/06/24 08:18:51;;;;;;;6.87;5.97;;;;;;;22.29;100.00;96464.00;5009762;28;20580;-66
2022/06/24 08:21:19;;;;;;;9.33;5.80;;;;;;;22.70;100.00;96463.81;4986552;28;20370;-63
2022/06/24 08:23:47;;;;;;;5.67;5.20;;;;;;;22.78;100.00;96456.22;5024704;28;20777;-67
2022/06/24 08:26:17;;;;;;;7.63;5.60;;;;;;;22.99;100.00;96448.75;5027665;28;20666;-63
2022/06/24 08:28:46;;;;;;;7.20;5.27;;;;;;;22.81;100.00;96461.84;5012170;28;20239;-66
2022/06/24 08:31:14;;;;;;;5.30;4.70;;;;;;;23.05;100.00;96453.03;5003833;28;20614;-63
2022/06/24 08:33:42;;;;;;;8.43;6.57;;;;;;;22.92;100.00;96443.69;5027646;28;20290;-64
2022/06/24 08:36:10;;;;;;;6.80;6.20;;;;;;;23.58;100.00;96448.78;4987628;28;20247;-64
2022/06/24 08:38:39;;;;;;;6.00;5.60;;;;;;;23.44;100.00;96448.66;5017863;28;20199;-66
2022/06/24 08:41:07;;;;;;;5.60;5.13;;;;;;;23.42;100.00;96454.34;5013657;28;20207;-65
2022/06/24 08:43:36;;;;;;;6.97;6.13;;;;;;;23.23;100.00;96450.72;5007444;28;20238;-65
2022/06/24 08:46:05;;;;;;;6.63;6.10;;;;;;;23.03;100.00;96462.50;5026295;28;20279;-64
2022/06/24 08:48:36;;;;;;;6.03;5.53;;;;;;;23.25;100.00;96462.06;5026187;28;20802;-65
2022/06/24 08:51:07;;;;;;;5.73;5.23;;;;;;;22.84;100.00;96472.06;4998851;28;20715;-63
2022/06/24 08:53:36;;;;;;;5.90;5.27;;;;;;;22.28;100.00;96470.50;4989380;28;20389;-66
2022/06/24 08:56:04;;;;;;;5.60;5.20;;;;;;;22.49;100.00;96473.91;5027621;28;20231;-64
2022/06/24 08:58:32;;;;;;;6.53;5.93;;;;;;;22.54;100.00;96481.19;5024580;28;20451;-64
2022/06/24 09:01:02;;;;;;;6.40;4.80;;;;;;;22.48;100.00;96477.69;5011201;28;20338;-64
2022/06/24 09:03:30;;;;;;;4.90;4.50;;;;;;;22.05;100.00;96477.34;5012635;28;20648;-65
2022/06/24 09:05:58;;;;;;;5.73;4.93;;;;;;;22.14;100.00;96469.47;5027936;28;20340;-65
2022/06/24 09:08:33;;;;;;;5.10;4.70;;;;;;;22.40;100.00;96465.59;4968799;28;20427;-66
2022/06/24 09:11:08;;;;;;;5.13;4.73;;;;;;;22.71;100.00;96459.22;5026107;28;20295;-64
2022/06/24 09:13:44;;;;;;;7.33;4.03;;;;;;;22.95;100.00;96461.22;5028639;28;20352;-66
2022/06/24 09:16:15;;;;;;;3.97;3.67;;;;;;;23.45;100.00;96460.28;5005920;28;20847;-64
2022/06/24 09:18:51;;;;;;;7.47;4.60;;;;;;;23.49;100.00;96456.72;5005192;28;20211;-62
2022/06/24 09:21:24;;;;;;;4.33;4.00;;;;;;;23.47;100.00;96453.47;5007876;28;20220;-63
2022/06/24 09:23:54;;;;;;;5.33;3.67;;;;;;;23.30;100.00;96464.75;4986085;28;20583;-66
2022/06/24 09:26:30;;;;;;;5.47;3.50;;;;;;;23.41;100.00;96460.84;5023242;28;20716;-65
2022/06/24 09:29:00;;;;;;;5.17;3.30;;;;;;;23.06;100.00;96465.44;5024339;28;20199;-65
2022/06/24 09:31:31;;;;;;;6.20;3.23;;;;;;;22.78;100.00;96467.81;5008421;28;20449;-66
2022/06/24 09:34:07;;;;;;;3.77;3.47;;;;;;;22.53;100.00;96464.16;5024360;28;20215;-64
2022/06/24 09:36:37;;;;;;;5.27;3.93;;;;;;;22.22;100.00;96458.94;5026108;28;20452;-64
2022/06/24 09:39:07;;;;;;;3.93;3.53;;;;;;;21.94;100.00;96445.03;4999416;28;20215;-65
2022/06/24 09:41:43;;;;;;;3.90;3.70;;;;;;;22.18;100.00;96447.09;5008580;28;20428;-66
2022/06/24 09:44:12;;;;;;;3.80;3.50;;;;;;;21.97;100.00;96452.56;5014647;28;20330;-64
2022/06/24 09:46:42;;;;;;;3.60;3.40;;;;;;;22.11;100.00;96455.47;5023773;28;20588;-65
2022/06/24 09:49:12;;;;;;;3.40;3.10;;;;;;;21.89;100.00;96452.31;5024403;28;20207;-64
2022/06/24 09:51:43;;;;;;;5.70;3.70;;;;;;;21.88;100.00;96448.81;5027185;28;20306;-65
2022/06/24 09:54:12;;;;;;;3.40;3.10;;;;;;;21.86;100.00;96458.25;5011926;28;20271;-63
2022/06/24 09:56:41;;;;;;;4.57;3.30;;;;;;;21.91;100.00;96444.75;4989094;28;20207;-64
2022/06/24 10:01:57;;;;;;;3.43;3.20;;;;;;;21.31;100.00;96454.28;5011419;28;20214;-65
2022/06/24 10:04:26;;;;;;;3.43;3.10;;;;;;;21.13;100.00;96452.97;5026120;28;20870;-66
2022/06/24 10:06:56;;;;;;;3.77;3.50;;;;;;;21.34;100.00;96456.44;5028918;28;20399;-65
2022/06/24 10:09:28;;;;;;;4.40;3.53;;;;;;;21.07;100.00;96468.34;5010892;28;20204;-66
2022/06/24 10:11:58;;;;;;;4.10;3.80;;;;;;;21.18;100.00;96469.13;4978588;28;20270;-67
2022/06/24 10:14:29;;;;;;;5.67;4.20;;;;;;;21.25;100.00;96472.38;4984754;28;20273;-63
2022/06/24 10:16:59;;;;;;;4.43;3.97;;;;;;;21.50;100.00;96472.59;5015321;28;20530;-62
2022/06/24 10:19:27;;;;;;;4.93;4.53;;;;;;;21.20;100.00;96475.03;5030347;28;20212;-64
2022/06/24 10:21:56;;;;;;;3.90;3.70;;;;;;;21.31;100.00;96467.75;5027327;28;20716;-66
2022/06/24 10:24:24;;;;;;;4.13;3.77;;;;;;;21.00;100.00;96470.47;5017757;28;20302;-64
2022/06/24 10:26:52;;;;;;;4.33;3.83;;;;;;;21.25;100.00;96472.38;5014078;28;20251;-63
2022/06/24 10:29:27;;;;;;;4.87;4.47;;;;;;;21.11;100.00;96472.09;4985990;28;20399;-63
2022/06/24 10:32:09;;;;;;;4.90;4.50;;;;;;;20.90;100.00;96467.78;5026693;28;20282;-65
2022/06/24 10:34:46;;;;;;;5.70;4.77;;;;;;;20.85;100.00;96462.38;5029046;28;20433;-61
2022/06/24 10:37:28;;;;;;;6.77;4.47;;;;;;;20.62;100.00;96467.16;5030697;28;20219;-64
2022/06/24 10:39:58;;;;;;;5.30;4.90;;;;;;;20.63;100.00;96472.28;5016897;28;20812;-60
2022/06/24 10:42:29;;;;;;;5.07;4.67;;;;;;;20.47;100.00;96473.34;5014571;28;20215;-65
2022/06/24 10:44:59;;;;;;;6.00;5.40;;;;;;;20.49;100.00;96480.06;5013997;28;20443;-64
2022/06/24 10:47:38;;;;;;;5.87;5.37;;;;;;;20.42;100.00;96478.69;5028137;28;20231;-64
2022/06/24 10:50:18;;;;;;;5.40;5.00;;;;;;;20.57;100.00;96488.69;5025001;28;20298;-64
2022/06/24 10:53:00;;;;;;;5.97;5.47;;;;;;;20.72;100.00;96488.72;5024940;28;20433;-63
2022/06/24 10:55:33;;;;;;;8.50;5.80;;;;;;;20.94;100.00;96495.78;5015774;28;20536;-64
2022/06/24 10:58:03;;;;;;;5.87;5.33;;;;;;;20.58;100.00;96479.53;4988008;28;20262;-65
2022/06/24 11:00:51;;;;;;;5.90;5.50;;;;;;;20.77;100.00;96485.22;5027657;28;20730;-63
2022/06/24 11:03:27;;;;;;;8.03;7.10;;;;;;;20.43;100.00;96477.59;5029759;28;20200;-65
2022/06/24 11:05:55;;;;;;;7.07;6.07;;;;;;;20.37;100.00;96466.03;5027798;28;20270;-64
2022/06/24 11:08:26;;;;;;;5.43;4.93;;;;;;;19.81;100.00;96467.41;5029085;28;20309;-65
2022/06/24 11:10:55;;;;;;;6.23;4.83;;;;;;;19.99;100.00;96460.78;5001340;28;20880;-65
2022/06/24 11:13:24;;;;;;;6.23;5.10;;;;;;;19.84;100.00;96455.31;5021244;28;20222;-64
2022/06/24 11:15:55;;;;;;;4.90;4.50;;;;;;;20.04;100.00;96455.44;4998125;28;20246;-64
2022/06/24 11:18:26;;;;;;;4.33;4.00;;;;;;;19.67;100.00;96449.06;5030780;28;20214;-65
2022/06/24 11:20:56;;;;;;;4.50;4.10;;;;;;;19.86;100.00;96447.81;5027439;28;20454;-64
2022/06/24 11:23:26;;;;;;;4.27;3.97;;;;;;;19.53;100.00;96443.34;5029744;28;20307;-64
2022/06/24 11:25:57;;;;;;;5.50;4.80;;;;;;;19.84;100.00;96440.00;5012020;28;20496;-66
2022/06/24 11:28:26;;;;;;;6.03;4.20;;;;;;;19.79;100.00;96432.72;5008141;28;20531;-59
2022/06/24 11:30:56;;;;;;;4.60;4.20;;;;;;;19.74;100.00;96427.34;4986579;28;20219;-65
2022/06/24 11:33:26;;;;;;;8.13;4.67;;;;;;;19.88;100.00;96433.00;5023885;28;20461;-63
2022/06/24 11:35:54;;;;;;;3.67;3.37;;;;;;;19.90;100.00;96438.16;5013759;28;20232;-64
2022/06/24 11:38:22;;;;;;;3.50;3.30;;;;;;;20.30;100.00;96433.22;5026312;28;20298;-63
2022/06/24 11:40:51;;;;;;;10.33;5.20;;;;;;;19.94;100.00;96425.81;5014081;28;20365;-64
2022/06/24 11:43:19;;;;;;;4.83;3.53;;;;;;;20.16;100.00;96424.84;5000830;28;20498;-64